sensor_id;sensor_type;location;lat;lon;timestamp;P1;durP1;ratioP1;P2;durP2;ratioP2
11677;SDS011;5895;41.950;24.372;2022-12-29T00:00:12;6.95;;;5.65;;
11677;SDS011;5895;41.950;24.372;2022-12-29T00:02:41;6.28;;;5.57;;
11677;SDS011;5895;41.950;24.372;2022-12-29T00:05:08;6.82;;;6.00;;
11677;SDS011;5895;41.950;24.372;2022-12-29T00:07:36;7.60;;;6.28;;
11677;SDS011;5895;41.950;24.372;2022-12-29T00:10:04;7.07;;;6.05;;
11677;SDS011;5895;41.950;24.372;2022-12-29T00:12:32;7.60;;;6.30;;
11677;SDS011;5895;41.950;24.372;2022-12-29T00:15:15;7.10;;;5.60;;
11677;SDS011;5895;41.950;24.372;2022-12-29T00:18:00;5.72;;;5.22;;
11677;SDS011;5895;41.950;24.372;2022-12-29T00:20:27;5.82;;;5.20;;
11677;SDS011;5895;41.950;24.372;2022-12-29T00:23:11;5.82;;;5.22;;
11677;SDS011;5895;41.950;24.372;2022-12-29T00:25:56;6.90;;;5.18;;
11677;SDS011;5895;41.950;24.372;2022-12-29T00:28:40;7.18;;;6.28;;
11677;SDS011;5895;41.950;24.372;2022-12-29T00:31:26;7.10;;;6.40;;
11677;SDS011;5895;41.950;24.372;2022-12-29T00:34:11;7.38;;;6.38;;
11677;SDS011;5895;41.950;24.372;2022-12-29T00:36:55;6.57;;;5.85;;
11677;SDS011;5895;41.950;24.372;2022-12-29T00:39:23;6.93;;;5.85;;
11677;SDS011;5895;41.950;24.372;2022-12-29T00:42:08;6.97;;;6.28;;
11677;SDS011;5895;41.950;24.372;2022-12-29T00:44:58;8.77;;;7.65;;
11677;SDS011;5895;41.950;24.372;2022-12-29T00:47:27;6.78;;;6.07;;
11677;SDS011;5895;41.950;24.372;2022-12-29T00:49:54;6.43;;;5.72;;
11677;SDS011;5895;41.950;24.372;2022-12-29T00:52:21;8.85;;;5.90;;
11677;SDS011;5895;41.950;24.372;2022-12-29T00:54:48;6.15;;;5.47;;
11677;SDS011;5895;41.950;24.372;2022-12-29T00:57:16;5.90;;;5.30;;
11677;SDS011;5895;41.950;24.372;2022-12-29T00:59:43;6.32;;;5.68;;
11677;SDS011;5895;41.950;24.372;2022-12-29T01:02:11;6.70;;;6.00;;
11677;SDS011;5895;41.950;24.372;2022-12-29T01:04:40;9.18;;;6.55;;
11677;SDS011;5895;41.950;24.372;2022-12-29T01:07:07;8.35;;;6.32;;
11677;SDS011;5895;41.950;24.372;2022-12-29T01:09:35;6.75;;;6.05;;
11677;SDS011;5895;41.950;24.372;2022-12-29T01:12:19;9.60;;;8.20;;
11677;SDS011;5895;41.950;24.372;2022-12-29T01:15:06;10.90;;;8.98;;
11677;SDS011;5895;41.950;24.372;2022-12-29T01:17:34;8.60;;;7.30;;
11677;SDS011;5895;41.950;24.372;2022-12-29T01:20:04;7.97;;;5.93;;
11677;SDS011;5895;41.950;24.372;2022-12-29T01:22:32;6.78;;;5.45;;
11677;SDS011;5895;41.950;24.372;2022-12-29T01:24:59;6.13;;;5.55;;
11677;SDS011;5895;41.950;24.372;2022-12-29T01:27:27;7.60;;;6.05;;
11677;SDS011;5895;41.950;24.372;2022-12-29T01:29:54;5.80;;;5.20;;
11677;SDS011;5895;41.950;24.372;2022-12-29T01:32:22;5.90;;;5.30;;
11677;SDS011;5895;41.950;24.372;2022-12-29T01:34:49;5.70;;;5.20;;
11677;SDS011;5895;41.950;24.372;2022-12-29T01:37:18;7.93;;;5.68;;
11677;SDS011;5895;41.950;24.372;2022-12-29T01:39:45;6.93;;;5.75;;
11677;SDS011;5895;41.950;24.372;2022-12-29T01:42:14;5.65;;;5.05;;
11677;SDS011;5895;41.950;24.372;2022-12-29T01:44:48;5.82;;;5.18;;
11677;SDS011;5895;41.950;24.372;2022-12-29T01:47:23;5.85;;;5.03;;
11677;SDS011;5895;41.950;24.372;2022-12-29T01:49:55;6.30;;;5.43;;
11677;SDS011;5895;41.950;24.372;2022-12-29T01:52:29;5.40;;;4.90;;
11677;SDS011;5895;41.950;24.372;2022-12-29T01:55:00;7.45;;;6.40;;
11677;SDS011;5895;41.950;24.372;2022-12-29T01:57:29;7.63;;;6.80;;
11677;SDS011;5895;41.950;24.372;2022-12-29T02:00:02;6.47;;;5.72;;
11677;SDS011;5895;41.950;24.372;2022-12-29T02:02:32;5.72;;;5.15;;
11677;SDS011;5895;41.950;24.372;2022-12-29T02:05:01;7.45;;;6.30;;
11677;SDS011;5895;41.950;24.372;2022-12-29T02:07:33;12.50;;;9.30;;
11677;SDS011;5895;41.950;24.372;2022-12-29T02:10:02;7.28;;;5.90;;
11677;SDS011;5895;41.950;24.372;2022-12-29T02:12:29;6.00;;;5.28;;
11677;SDS011;5895;41.950;24.372;2022-12-29T02:14:57;6.78;;;5.68;;
11677;SDS011;5895;41.950;24.372;2022-12-29T02:17:31;12.00;;;9.55;;
11677;SDS011;5895;41.950;24.372;2022-12-29T02:23:36;7.90;;;6.30;;
11677;SDS011;5895;41.950;24.372;2022-12-29T02:26:16;7.07;;;6.10;;
11677;SDS011;5895;41.950;24.372;2022-12-29T02:29:04;6.28;;;5.68;;
11677;SDS011;5895;41.950;24.372;2022-12-29T02:31:52;7.00;;;6.30;;
11677;SDS011;5895;41.950;24.372;2022-12-29T02:34:26;7.80;;;6.65;;
11677;SDS011;5895;41.950;24.372;2022-12-29T02:37:05;6.90;;;5.90;;
11677;SDS011;5895;41.950;24.372;2022-12-29T02:39:38;6.78;;;5.50;;
11677;SDS011;5895;41.950;24.372;2022-12-29T02:42:12;7.88;;;7.07;;
11677;SDS011;5895;41.950;24.372;2022-12-29T02:44:54;8.18;;;7.05;;
11677;SDS011;5895;41.950;24.372;2022-12-29T02:47:29;5.50;;;5.00;;
11677;SDS011;5895;41.950;24.372;2022-12-29T02:50:03;7.13;;;6.15;;
11677;SDS011;5895;41.950;24.372;2022-12-29T02:52:36;5.30;;;4.72;;
11677;SDS011;5895;41.950;24.372;2022-12-29T02:55:07;5.00;;;4.50;;
11677;SDS011;5895;41.950;24.372;2022-12-29T02:57:35;5.55;;;4.93;;
11677;SDS011;5895;41.950;24.372;2022-12-29T03:00:04;5.30;;;4.80;;
11677;SDS011;5895;41.950;24.372;2022-12-29T03:02:48;5.88;;;5.28;;
11677;SDS011;5895;41.950;24.372;2022-12-29T03:05:57;6.78;;;5.65;;
11677;SDS011;5895;41.950;24.372;2022-12-29T03:08:35;23.90;;;14.50;;
11677;SDS011;5895;41.950;24.372;2022-12-29T03:11:10;11.77;;;8.60;;
11677;SDS011;5895;41.950;24.372;2022-12-29T03:13:54;9.20;;;7.13;;
11677;SDS011;5895;41.950;24.372;2022-12-29T03:16:43;8.00;;;6.93;;
11677;SDS011;5895;41.950;24.372;2022-12-29T03:19:15;33.00;;;17.92;;
11677;SDS011;5895;41.950;24.372;2022-12-29T03:21:48;28.33;;;14.75;;
11677;SDS011;5895;41.950;24.372;2022-12-29T03:24:38;11.90;;;8.32;;
11677;SDS011;5895;41.950;24.372;2022-12-29T03:27:09;9.07;;;6.72;;
11677;SDS011;5895;41.950;24.372;2022-12-29T03:29:42;10.93;;;7.78;;
11677;SDS011;5895;41.950;24.372;2022-12-29T03:32:18;12.48;;;9.10;;
11677;SDS011;5895;41.950;24.372;2022-12-29T03:34:48;9.75;;;7.80;;
11677;SDS011;5895;41.950;24.372;2022-12-29T03:37:18;8.18;;;7.00;;
11677;SDS011;5895;41.950;24.372;2022-12-29T03:39:50;6.68;;;5.97;;
11677;SDS011;5895;41.950;24.372;2022-12-29T03:42:19;6.90;;;5.40;;
11677;SDS011;5895;41.950;24.372;2022-12-29T03:44:49;7.32;;;5.70;;
11677;SDS011;5895;41.950;24.372;2022-12-29T03:47:21;6.90;;;5.95;;
11677;SDS011;5895;41.950;24.372;2022-12-29T03:49:51;9.80;;;6.47;;
11677;SDS011;5895;41.950;24.372;2022-12-29T03:52:19;6.97;;;6.00;;
11677;SDS011;5895;41.950;24.372;2022-12-29T03:54:46;6.22;;;5.63;;
11677;SDS011;5895;41.950;24.372;2022-12-29T03:57:13;10.23;;;7.80;;
11677;SDS011;5895;41.950;24.372;2022-12-29T03:59:41;9.38;;;8.23;;
11677;SDS011;5895;41.950;24.372;2022-12-29T04:02:08;9.68;;;7.95;;
11677;SDS011;5895;41.950;24.372;2022-12-29T04:04:36;7.30;;;6.07;;
11677;SDS011;5895;41.950;24.372;2022-12-29T04:07:05;6.65;;;5.50;;
11677;SDS011;5895;41.950;24.372;2022-12-29T04:09:32;5.75;;;5.13;;
11677;SDS011;5895;41.950;24.372;2022-12-29T04:12:00;6.15;;;5.55;;
11677;SDS011;5895;41.950;24.372;2022-12-29T04:14:27;6.13;;;5.50;;
11677;SDS011;5895;41.950;24.372;2022-12-29T04:16:54;6.70;;;6.10;;
11677;SDS011;5895;41.950;24.372;2022-12-29T04:19:22;6.50;;;5.88;;
11677;SDS011;5895;41.950;24.372;2022-12-29T04:21:49;6.40;;;5.80;;
11677;SDS011;5895;41.950;24.372;2022-12-29T04:24:18;6.93;;;5.75;;
11677;SDS011;5895;41.950;24.372;2022-12-29T04:26:46;5.95;;;5.35;;
11677;SDS011;5895;41.950;24.372;2022-12-29T04:29:13;5.13;;;4.63;;
11677;SDS011;5895;41.950;24.372;2022-12-29T04:31:41;5.30;;;4.80;;
11677;SDS011;5895;41.950;24.372;2022-12-29T04:34:08;5.15;;;4.68;;
11677;SDS011;5895;41.950;24.372;2022-12-29T04:36:35;6.35;;;5.40;;
11677;SDS011;5895;41.950;24.372;2022-12-29T04:39:04;5.30;;;4.80;;
11677;SDS011;5895;41.950;24.372;2022-12-29T04:41:33;5.85;;;5.25;;
11677;SDS011;5895;41.950;24.372;2022-12-29T04:44:01;5.88;;;5.28;;
11677;SDS011;5895;41.950;24.372;2022-12-29T04:46:29;6.25;;;5.65;;
11677;SDS011;5895;41.950;24.372;2022-12-29T04:48:56;6.60;;;5.68;;
11677;SDS011;5895;41.950;24.372;2022-12-29T04:51:25;6.25;;;5.65;;
11677;SDS011;5895;41.950;24.372;2022-12-29T04:53:53;6.18;;;5.53;;
11677;SDS011;5895;41.950;24.372;2022-12-29T04:56:20;6.10;;;5.50;;
11677;SDS011;5895;41.950;24.372;2022-12-29T04:58:49;6.75;;;5.95;;
11677;SDS011;5895;41.950;24.372;2022-12-29T05:01:17;5.50;;;5.00;;
11677;SDS011;5895;41.950;24.372;2022-12-29T05:03:44;5.68;;;4.93;;
11677;SDS011;5895;41.950;24.372;2022-12-29T05:06:12;5.85;;;5.25;;
11677;SDS011;5895;41.950;24.372;2022-12-29T05:08:39;5.25;;;4.75;;
11677;SDS011;5895;41.950;24.372;2022-12-29T05:11:06;4.85;;;4.43;;
11677;SDS011;5895;41.950;24.372;2022-12-29T05:13:34;4.65;;;4.25;;
11677;SDS011;5895;41.950;24.372;2022-12-29T05:16:03;5.72;;;5.20;;
11677;SDS011;5895;41.950;24.372;2022-12-29T05:18:30;5.03;;;4.53;;
11677;SDS011;5895;41.950;24.372;2022-12-29T05:20:58;4.60;;;4.20;;
11677;SDS011;5895;41.950;24.372;2022-12-29T05:23:25;5.25;;;4.80;;
11677;SDS011;5895;41.950;24.372;2022-12-29T05:25:53;6.20;;;4.50;;
11677;SDS011;5895;41.950;24.372;2022-12-29T05:28:20;6.60;;;4.60;;
11677;SDS011;5895;41.950;24.372;2022-12-29T05:30:48;6.90;;;6.20;;
11677;SDS011;5895;41.950;24.372;2022-12-29T05:33:18;9.50;;;8.60;;
11677;SDS011;5895;41.950;24.372;2022-12-29T05:35:46;20.20;;;14.30;;
11677;SDS011;5895;41.950;24.372;2022-12-29T05:38:13;19.23;;;15.13;;
11677;SDS011;5895;41.950;24.372;2022-12-29T05:40:41;38.08;;;22.55;;
11677;SDS011;5895;41.950;24.372;2022-12-29T05:43:09;18.80;;;12.45;;
11677;SDS011;5895;41.950;24.372;2022-12-29T05:45:37;55.53;;;31.35;;
11677;SDS011;5895;41.950;24.372;2022-12-29T05:48:04;56.08;;;33.28;;
11677;SDS011;5895;41.950;24.372;2022-12-29T05:50:33;41.50;;;25.60;;
11677;SDS011;5895;41.950;24.372;2022-12-29T05:53:01;31.13;;;19.00;;
11677;SDS011;5895;41.950;24.372;2022-12-29T05:55:28;17.80;;;11.70;;
11677;SDS011;5895;41.950;24.372;2022-12-29T05:57:56;27.30;;;17.73;;
11677;SDS011;5895;41.950;24.372;2022-12-29T06:00:23;19.63;;;14.02;;
11677;SDS011;5895;41.950;24.372;2022-12-29T06:02:51;13.63;;;9.80;;
11677;SDS011;5895;41.950;24.372;2022-12-29T06:05:18;15.07;;;8.95;;
11677;SDS011;5895;41.950;24.372;2022-12-29T06:07:47;13.68;;;9.65;;
11677;SDS011;5895;41.950;24.372;2022-12-29T06:10:15;17.60;;;13.15;;
11677;SDS011;5895;41.950;24.372;2022-12-29T06:12:42;28.20;;;21.40;;
11677;SDS011;5895;41.950;24.372;2022-12-29T06:15:10;43.60;;;28.70;;
11677;SDS011;5895;41.950;24.372;2022-12-29T06:17:37;25.52;;;19.48;;
11677;SDS011;5895;41.950;24.372;2022-12-29T06:20:06;20.52;;;15.75;;
11677;SDS011;5895;41.950;24.372;2022-12-29T06:22:34;16.20;;;11.23;;
11677;SDS011;5895;41.950;24.372;2022-12-29T06:25:05;12.82;;;10.25;;
11677;SDS011;5895;41.950;24.372;2022-12-29T06:27:33;12.57;;;9.63;;
11677;SDS011;5895;41.950;24.372;2022-12-29T06:30:00;12.68;;;9.82;;
11677;SDS011;5895;41.950;24.372;2022-12-29T06:32:28;11.75;;;9.45;;
11677;SDS011;5895;41.950;24.372;2022-12-29T06:34:55;19.73;;;14.90;;
11677;SDS011;5895;41.950;24.372;2022-12-29T06:37:23;17.95;;;14.15;;
11677;SDS011;5895;41.950;24.372;2022-12-29T06:39:50;13.93;;;10.60;;
11677;SDS011;5895;41.950;24.372;2022-12-29T06:42:19;10.68;;;7.30;;
11677;SDS011;5895;41.950;24.372;2022-12-29T06:44:47;9.32;;;7.38;;
11677;SDS011;5895;41.950;24.372;2022-12-29T06:47:14;13.27;;;10.25;;
11677;SDS011;5895;41.950;24.372;2022-12-29T06:49:42;15.25;;;12.10;;
11677;SDS011;5895;41.950;24.372;2022-12-29T06:52:09;23.63;;;16.80;;
11677;SDS011;5895;41.950;24.372;2022-12-29T06:54:37;10.13;;;8.55;;
11677;SDS011;5895;41.950;24.372;2022-12-29T06:57:04;11.98;;;9.13;;
11677;SDS011;5895;41.950;24.372;2022-12-29T06:59:33;12.98;;;8.70;;
11677;SDS011;5895;41.950;24.372;2022-12-29T07:02:01;9.02;;;7.70;;
11677;SDS011;5895;41.950;24.372;2022-12-29T07:04:29;6.75;;;6.05;;
11677;SDS011;5895;41.950;24.372;2022-12-29T07:06:56;7.75;;;6.70;;
11677;SDS011;5895;41.950;24.372;2022-12-29T07:09:24;7.65;;;5.85;;
11677;SDS011;5895;41.950;24.372;2022-12-29T07:11:51;6.97;;;5.32;;
11677;SDS011;5895;41.950;24.372;2022-12-29T07:14:19;6.45;;;5.47;;
11677;SDS011;5895;41.950;24.372;2022-12-29T07:16:48;5.60;;;5.10;;
11677;SDS011;5895;41.950;24.372;2022-12-29T07:19:15;5.70;;;5.07;;
11677;SDS011;5895;41.950;24.372;2022-12-29T07:21:42;5.35;;;4.85;;
11677;SDS011;5895;41.950;24.372;2022-12-29T07:24:10;5.88;;;4.93;;
11677;SDS011;5895;41.950;24.372;2022-12-29T07:26:37;5.82;;;5.22;;
11677;SDS011;5895;41.950;24.372;2022-12-29T07:29:05;7.63;;;5.78;;
11677;SDS011;5895;41.950;24.372;2022-12-29T07:31:32;5.43;;;4.93;;
11677;SDS011;5895;41.950;24.372;2022-12-29T07:34:01;5.05;;;4.65;;
11677;SDS011;5895;41.950;24.372;2022-12-29T07:36:28;5.13;;;4.63;;
11677;SDS011;5895;41.950;24.372;2022-12-29T07:38:56;4.88;;;4.40;;
11677;SDS011;5895;41.950;24.372;2022-12-29T07:41:23;5.55;;;4.90;;
11677;SDS011;5895;41.950;24.372;2022-12-29T07:43:51;5.65;;;5.15;;
11677;SDS011;5895;41.950;24.372;2022-12-29T07:46:18;5.82;;;4.85;;
11677;SDS011;5895;41.950;24.372;2022-12-29T07:48:46;20.20;;;11.18;;
11677;SDS011;5895;41.950;24.372;2022-12-29T07:51:15;17.02;;;13.02;;
11677;SDS011;5895;41.950;24.372;2022-12-29T07:53:42;18.05;;;14.32;;
11677;SDS011;5895;41.950;24.372;2022-12-29T07:56:09;20.85;;;16.20;;
11677;SDS011;5895;41.950;24.372;2022-12-29T07:58:37;24.92;;;17.05;;
11677;SDS011;5895;41.950;24.372;2022-12-29T08:01:04;22.05;;;17.20;;
11677;SDS011;5895;41.950;24.372;2022-12-29T08:03:32;18.90;;;14.82;;
11677;SDS011;5895;41.950;24.372;2022-12-29T08:05:59;20.45;;;17.02;;
11677;SDS011;5895;41.950;24.372;2022-12-29T08:08:28;16.50;;;13.95;;
11677;SDS011;5895;41.950;24.372;2022-12-29T08:10:55;13.02;;;11.30;;
11677;SDS011;5895;41.950;24.372;2022-12-29T08:13:23;7.75;;;6.85;;
11677;SDS011;5895;41.950;24.372;2022-12-29T08:15:50;7.28;;;6.57;;
11677;SDS011;5895;41.950;24.372;2022-12-29T08:18:17;4.53;;;4.13;;
11677;SDS011;5895;41.950;24.372;2022-12-29T08:20:45;5.47;;;4.80;;
11677;SDS011;5895;41.950;24.372;2022-12-29T08:23:13;4.57;;;4.18;;
11677;SDS011;5895;41.950;24.372;2022-12-29T08:25:41;4.38;;;3.97;;
11677;SDS011;5895;41.950;24.372;2022-12-29T08:28:09;3.88;;;3.58;;
11677;SDS011;5895;41.950;24.372;2022-12-29T08:30:36;6.72;;;4.03;;
11677;SDS011;5895;41.950;24.372;2022-12-29T08:33:04;4.15;;;3.75;;
11677;SDS011;5895;41.950;24.372;2022-12-29T08:35:31;4.60;;;4.20;;
11677;SDS011;5895;41.950;24.372;2022-12-29T08:37:59;3.92;;;3.60;;
11677;SDS011;5895;41.950;24.372;2022-12-29T08:40:26;3.92;;;3.53;;
11677;SDS011;5895;41.950;24.372;2022-12-29T08:42:55;3.88;;;3.50;;
11677;SDS011;5895;41.950;24.372;2022-12-29T08:45:23;4.00;;;3.70;;
11677;SDS011;5895;41.950;24.372;2022-12-29T08:47:50;4.32;;;3.92;;
11677;SDS011;5895;41.950;24.372;2022-12-29T08:50:17;4.82;;;3.95;;
11677;SDS011;5895;41.950;24.372;2022-12-29T08:52:45;3.75;;;3.45;;
11677;SDS011;5895;41.950;24.372;2022-12-29T08:55:12;3.50;;;3.13;;
11677;SDS011;5895;41.950;24.372;2022-12-29T08:57:40;3.85;;;3.55;;
11677;SDS011;5895;41.950;24.372;2022-12-29T09:00:10;5.65;;;3.50;;
11677;SDS011;5895;41.950;24.372;2022-12-29T09:02:38;3.88;;;3.47;;
11677;SDS011;5895;41.950;24.372;2022-12-29T09:05:06;3.60;;;3.30;;
11677;SDS011;5895;41.950;24.372;2022-12-29T09:07:34;4.30;;;3.40;;
11677;SDS011;5895;41.950;24.372;2022-12-29T09:10:02;3.70;;;3.40;;
11677;SDS011;5895;41.950;24.372;2022-12-29T09:12:31;3.58;;;3.28;;
11677;SDS011;5895;41.950;24.372;2022-12-29T09:14:59;4.00;;;3.33;;
11677;SDS011;5895;41.950;24.372;2022-12-29T09:17:28;3.70;;;3.40;;
11677;SDS011;5895;41.950;24.372;2022-12-29T09:20:08;3.80;;;3.50;;
11677;SDS011;5895;41.950;24.372;2022-12-29T09:22:36;3.70;;;3.40;;
11677;SDS011;5895;41.950;24.372;2022-12-29T09:25:04;3.97;;;3.63;;
11677;SDS011;5895;41.950;24.372;2022-12-29T09:27:32;3.97;;;3.60;;
11677;SDS011;5895;41.950;24.372;2022-12-29T09:29:59;3.50;;;3.20;;
11677;SDS011;5895;41.950;24.372;2022-12-29T09:32:28;3.72;;;3.25;;
11677;SDS011;5895;41.950;24.372;2022-12-29T09:34:56;4.50;;;3.63;;
11677;SDS011;5895;41.950;24.372;2022-12-29T09:37:23;3.55;;;3.25;;
11677;SDS011;5895;41.950;24.372;2022-12-29T09:39:51;3.83;;;3.05;;
11677;SDS011;5895;41.950;24.372;2022-12-29T09:42:19;3.70;;;3.03;;
11677;SDS011;5895;41.950;24.372;2022-12-29T09:44:54;3.00;;;2.70;;
11677;SDS011;5895;41.950;24.372;2022-12-29T09:47:30;3.50;;;3.20;;
11677;SDS011;5895;41.950;24.372;2022-12-29T09:49:59;3.67;;;3.38;;
11677;SDS011;5895;41.950;24.372;2022-12-29T09:52:30;3.35;;;3.05;;
11677;SDS011;5895;41.950;24.372;2022-12-29T09:55:03;3.67;;;2.88;;
11677;SDS011;5895;41.950;24.372;2022-12-29T09:57:35;2.88;;;2.60;;
11677;SDS011;5895;41.950;24.372;2022-12-29T10:00:10;3.08;;;2.75;;
11677;SDS011;5895;41.950;24.372;2022-12-29T10:02:44;2.53;;;2.33;;
11677;SDS011;5895;41.950;24.372;2022-12-29T10:05:20;3.30;;;2.78;;
11677;SDS011;5895;41.950;24.372;2022-12-29T10:08:01;3.30;;;3.00;;
11677;SDS011;5895;41.950;24.372;2022-12-29T10:10:48;2.80;;;2.60;;
11677;SDS011;5895;41.950;24.372;2022-12-29T10:13:26;3.20;;;2.95;;
11677;SDS011;5895;41.950;24.372;2022-12-29T10:16:02;2.92;;;2.72;;
11677;SDS011;5895;41.950;24.372;2022-12-29T10:18:44;2.75;;;2.50;;
11677;SDS011;5895;41.950;24.372;2022-12-29T10:21:26;2.63;;;2.42;;
11677;SDS011;5895;41.950;24.372;2022-12-29T10:24:04;2.60;;;2.22;;
11677;SDS011;5895;41.950;24.372;2022-12-29T10:26:37;2.90;;;2.70;;
11677;SDS011;5895;41.950;24.372;2022-12-29T10:29:11;3.40;;;2.45;;
11677;SDS011;5895;41.950;24.372;2022-12-29T10:31:44;2.45;;;2.25;;
11677;SDS011;5895;41.950;24.372;2022-12-29T10:34:18;2.35;;;2.15;;
11677;SDS011;5895;41.950;24.372;2022-12-29T10:36:49;4.85;;;2.40;;
11677;SDS011;5895;41.950;24.372;2022-12-29T10:39:22;2.67;;;2.47;;
11677;SDS011;5895;41.950;24.372;2022-12-29T10:41:57;3.10;;;2.75;;
11677;SDS011;5895;41.950;24.372;2022-12-29T10:44:34;2.67;;;2.47;;
11677;SDS011;5895;41.950;24.372;2022-12-29T10:47:02;3.05;;;2.67;;
11677;SDS011;5895;41.950;24.372;2022-12-29T10:49:36;2.72;;;2.40;;
11677;SDS011;5895;41.950;24.372;2022-12-29T10:52:09;2.55;;;2.35;;
11677;SDS011;5895;41.950;24.372;2022-12-29T10:54:39;2.50;;;2.30;;
11677;SDS011;5895;41.950;24.372;2022-12-29T10:57:13;2.70;;;2.50;;
11677;SDS011;5895;41.950;24.372;2022-12-29T10:59:48;3.60;;;2.60;;
11677;SDS011;5895;41.950;24.372;2022-12-29T11:02:22;3.58;;;2.88;;
11677;SDS011;5895;41.950;24.372;2022-12-29T11:05:06;3.53;;;2.90;;
11677;SDS011;5895;41.950;24.372;2022-12-29T11:07:43;3.00;;;2.63;;
11677;SDS011;5895;41.950;24.372;2022-12-29T11:10:18;3.03;;;2.72;;
11677;SDS011;5895;41.950;24.372;2022-12-29T11:12:54;3.13;;;2.83;;
11677;SDS011;5895;41.950;24.372;2022-12-29T11:15:23;2.92;;;2.70;;
11677;SDS011;5895;41.950;24.372;2022-12-29T11:17:52;3.00;;;2.72;;
11677;SDS011;5895;41.950;24.372;2022-12-29T11:20:31;3.65;;;3.25;;
11677;SDS011;5895;41.950;24.372;2022-12-29T11:23:00;6.80;;;4.07;;
11677;SDS011;5895;41.950;24.372;2022-12-29T11:25:29;5.15;;;3.58;;
11677;SDS011;5895;41.950;24.372;2022-12-29T11:27:57;5.50;;;4.65;;
11677;SDS011;5895;41.950;24.372;2022-12-29T11:30:27;4.97;;;3.80;;
11677;SDS011;5895;41.950;24.372;2022-12-29T11:32:57;5.25;;;4.07;;
11677;SDS011;5895;41.950;24.372;2022-12-29T11:35:33;7.50;;;5.72;;
11677;SDS011;5895;41.950;24.372;2022-12-29T11:38:02;3.70;;;3.40;;
11677;SDS011;5895;41.950;24.372;2022-12-29T11:40:31;5.03;;;4.53;;
11677;SDS011;5895;41.950;24.372;2022-12-29T11:43:04;4.45;;;4.03;;
11677;SDS011;5895;41.950;24.372;2022-12-29T11:45:33;4.00;;;3.58;;
11677;SDS011;5895;41.950;24.372;2022-12-29T11:48:06;3.65;;;3.30;;
11677;SDS011;5895;41.950;24.372;2022-12-29T11:50:37;3.38;;;3.08;;
11677;SDS011;5895;41.950;24.372;2022-12-29T11:53:13;4.07;;;3.75;;
11677;SDS011;5895;41.950;24.372;2022-12-29T11:55:50;4.20;;;3.80;;
11677;SDS011;5895;41.950;24.372;2022-12-29T11:58:19;3.17;;;2.88;;
11677;SDS011;5895;41.950;24.372;2022-12-29T12:00:47;3.55;;;2.95;;
11677;SDS011;5895;41.950;24.372;2022-12-29T12:03:17;5.60;;;4.60;;
11677;SDS011;5895;41.950;24.372;2022-12-29T12:05:49;4.90;;;4.40;;
11677;SDS011;5895;41.950;24.372;2022-12-29T12:08:22;4.05;;;3.65;;
11677;SDS011;5895;41.950;24.372;2022-12-29T12:11:01;4.45;;;3.67;;
11677;SDS011;5895;41.950;24.372;2022-12-29T12:13:37;3.28;;;2.97;;
11677;SDS011;5895;41.950;24.372;2022-12-29T12:16:09;5.75;;;4.32;;
11677;SDS011;5895;41.950;24.372;2022-12-29T12:18:43;4.43;;;4.00;;
11677;SDS011;5895;41.950;24.372;2022-12-29T12:21:24;5.53;;;4.95;;
11677;SDS011;5895;41.950;24.372;2022-12-29T12:24:20;4.18;;;3.80;;
11677;SDS011;5895;41.950;24.372;2022-12-29T12:27:00;4.80;;;4.35;;
11677;SDS011;5895;41.950;24.372;2022-12-29T12:29:35;4.82;;;4.10;;
11677;SDS011;5895;41.950;24.372;2022-12-29T12:32:10;4.68;;;4.13;;
11677;SDS011;5895;41.950;24.372;2022-12-29T12:34:41;3.70;;;3.40;;
11677;SDS011;5895;41.950;24.372;2022-12-29T12:37:15;3.92;;;3.33;;
11677;SDS011;5895;41.950;24.372;2022-12-29T12:40:01;4.40;;;3.80;;
11677;SDS011;5895;41.950;24.372;2022-12-29T12:42:53;6.35;;;4.43;;
11677;SDS011;5895;41.950;24.372;2022-12-29T12:45:38;4.78;;;4.28;;
11677;SDS011;5895;41.950;24.372;2022-12-29T12:48:20;9.27;;;6.60;;
11677;SDS011;5895;41.950;24.372;2022-12-29T12:51:03;13.65;;;8.32;;
11677;SDS011;5895;41.950;24.372;2022-12-29T12:53:51;13.02;;;6.57;;
11677;SDS011;5895;41.950;24.372;2022-12-29T12:56:44;11.95;;;8.65;;
11677;SDS011;5895;41.950;24.372;2022-12-29T12:59:25;7.15;;;6.45;;
11677;SDS011;5895;41.950;24.372;2022-12-29T13:02:09;7.90;;;5.90;;
11677;SDS011;5895;41.950;24.372;2022-12-29T13:04:57;9.40;;;6.57;;
11677;SDS011;5895;41.950;24.372;2022-12-29T13:07:56;6.03;;;5.43;;
11677;SDS011;5895;41.950;24.372;2022-12-29T13:10:58;10.23;;;8.30;;
11677;SDS011;5895;41.950;24.372;2022-12-29T13:13:35;6.50;;;5.90;;
11677;SDS011;5895;41.950;24.372;2022-12-29T13:16:27;5.00;;;4.50;;
11677;SDS011;5895;41.950;24.372;2022-12-29T13:19:02;6.63;;;5.93;;
11677;SDS011;5895;41.950;24.372;2022-12-29T13:21:40;7.13;;;5.60;;
11677;SDS011;5895;41.950;24.372;2022-12-29T13:24:19;5.85;;;5.15;;
11677;SDS011;5895;41.950;24.372;2022-12-29T13:26:58;4.60;;;4.20;;
11677;SDS011;5895;41.950;24.372;2022-12-29T13:29:31;7.93;;;6.72;;
11677;SDS011;5895;41.950;24.372;2022-12-29T13:32:08;5.13;;;4.68;;
11677;SDS011;5895;41.950;24.372;2022-12-29T13:34:53;3.90;;;3.60;;
11677;SDS011;5895;41.950;24.372;2022-12-29T13:37:31;4.10;;;3.63;;
11677;SDS011;5895;41.950;24.372;2022-12-29T13:40:04;5.25;;;4.18;;
11677;SDS011;5895;41.950;24.372;2022-12-29T13:42:41;6.70;;;5.07;;
11677;SDS011;5895;41.950;24.372;2022-12-29T13:45:10;7.55;;;6.05;;
11677;SDS011;5895;41.950;24.372;2022-12-29T13:47:42;10.63;;;9.18;;
11677;SDS011;5895;41.950;24.372;2022-12-29T13:50:14;11.20;;;8.65;;
11677;SDS011;5895;41.950;24.372;2022-12-29T13:52:45;7.47;;;6.43;;
11677;SDS011;5895;41.950;24.372;2022-12-29T13:55:24;7.13;;;6.43;;
11677;SDS011;5895;41.950;24.372;2022-12-29T13:58:02;10.57;;;9.35;;
11677;SDS011;5895;41.950;24.372;2022-12-29T14:00:42;8.65;;;7.75;;
11677;SDS011;5895;41.950;24.372;2022-12-29T14:06:18;4.45;;;4.05;;
11677;SDS011;5895;41.950;24.372;2022-12-29T14:08:49;4.20;;;2.92;;
11677;SDS011;5895;41.950;24.372;2022-12-29T14:11:23;3.45;;;3.17;;
11677;SDS011;5895;41.950;24.372;2022-12-29T14:13:58;3.60;;;3.05;;
11677;SDS011;5895;41.950;24.372;2022-12-29T14:16:37;3.10;;;2.90;;
11677;SDS011;5895;41.950;24.372;2022-12-29T14:19:09;3.78;;;3.47;;
11677;SDS011;5895;41.950;24.372;2022-12-29T14:21:48;4.95;;;4.32;;
11677;SDS011;5895;41.950;24.372;2022-12-29T14:33:17;12.43;;;10.38;;
11677;SDS011;5895;41.950;24.372;2022-12-29T14:35:49;11.95;;;9.75;;
11677;SDS011;5895;41.950;24.372;2022-12-29T14:41:17;8.00;;;7.20;;
11677;SDS011;5895;41.950;24.372;2022-12-29T14:43:52;8.52;;;7.63;;
11677;SDS011;5895;41.950;24.372;2022-12-29T14:46:24;8.05;;;7.25;;
11677;SDS011;5895;41.950;24.372;2022-12-29T14:48:55;7.72;;;6.93;;
11677;SDS011;5895;41.950;24.372;2022-12-29T14:51:30;7.85;;;7.05;;
11677;SDS011;5895;41.950;24.372;2022-12-29T14:57:03;15.45;;;13.43;;
11677;SDS011;5895;41.950;24.372;2022-12-29T14:59:33;13.63;;;12.23;;
11677;SDS011;5895;41.950;24.372;2022-12-29T15:02:05;13.30;;;11.13;;
11677;SDS011;5895;41.950;24.372;2022-12-29T15:04:42;13.80;;;12.30;;
11677;SDS011;5895;41.950;24.372;2022-12-29T15:07:10;12.38;;;10.98;;
11677;SDS011;5895;41.950;24.372;2022-12-29T15:09:39;15.30;;;12.02;;
11677;SDS011;5895;41.950;24.372;2022-12-29T15:12:17;17.55;;;14.23;;
11677;SDS011;5895;41.950;24.372;2022-12-29T15:14:49;14.90;;;13.40;;
11677;SDS011;5895;41.950;24.372;2022-12-29T15:17:26;14.82;;;12.27;;
11677;SDS011;5895;41.950;24.372;2022-12-29T15:19:54;13.25;;;11.85;;
11677;SDS011;5895;41.950;24.372;2022-12-29T15:22:24;10.93;;;9.82;;
11677;SDS011;5895;41.950;24.372;2022-12-29T15:24:53;9.77;;;7.88;;
11677;SDS011;5895;41.950;24.372;2022-12-29T15:27:22;6.93;;;6.22;;
11677;SDS011;5895;41.950;24.372;2022-12-29T15:29:56;10.10;;;7.22;;
11677;SDS011;5895;41.950;24.372;2022-12-29T15:32:27;8.00;;;6.95;;